Time;durP1;ratioP1;P1;durP2;ratioP2;P2;SDS_P1;SDS_P2;PMS_P1;PMS_P2;Temp;Humidity;BMP_temperature;BMP_pressure;BME280_temperature;BME280_humidity;BME280_pressure;Samples;Min_cycle;Max_cycle;Signal;HPM_P1;HPM_P2
2023/02/08 00:02:57;;;;;;;11.70;7.38;;;;;;;;;;10404377;28;20034;-59
2023/02/08 00:07:57;;;;;;;9.82;7.07;;;;;;;;;;10408024;28;20091;-58
2023/02/08 00:12:58;;;;;;;10.77;7.03;;;;;;;;;;10393585;28;20034;-59
2023/02/08 00:17:59;;;;;;;9.98;6.82;;;;;;;;;;10401266;28;20022;-59
2023/02/08 00:22:59;;;;;;;12.30;7.45;;;;;;;;;;10381607;28;20026;-58
2023/02/08 00:28:00;;;;;;;11.05;6.78;;;;;;;;;;10375273;28;20370;-58
2023/02/08 00:33:01;;;;;;;9.27;6.85;;;;;;;;;;10377928;28;20428;-60
2023/02/08 00:38:01;;;;;;;10.00;7.03;;;;;;;;;;10402657;28;20390;-59
2023/02/08 00:43:02;;;;;;;10.50;7.38;;;;;;;;;;10397872;28;20022;-59
2023/02/08 00:48:03;;;;;;;12.45;7.35;;;;;;;;;;10382604;28;20028;-61
2023/02/08 00:53:03;;;;;;;9.75;6.85;;;;;;;;;;10374357;28;20041;-60
2023/02/08 00:58:04;;;;;;;9.52;6.75;;;;;;;;;;10370387;28;20034;-59
2023/02/08 01:03:04;;;;;;;11.85;7.38;;;;;;;;;;10403206;28;20026;-60
2023/02/08 01:08:05;;;;;;;11.40;7.15;;;;;;;;;;10397362;28;20018;-59
2023/02/08 01:13:06;;;;;;;11.68;7.05;;;;;;;;;;10386691;28;20018;-59
2023/02/08 01:18:06;;;;;;;9.55;6.53;;;;;;;;;;10385820;28;20022;-59
2023/02/08 01:23:07;;;;;;;10.10;6.43;;;;;;;;;;10388297;28;20113;-59
2023/02/08 01:28:07;;;;;;;11.23;6.82;;;;;;;;;;10393120;28;20036;-59
2023/02/08 01:33:08;;;;;;;7.93;6.35;;;;;;;;;;10384601;28;20033;-62
2023/02/08 01:38:08;;;;;;;8.25;6.60;;;;;;;;;;10400104;28;20037;-58
2023/02/08 01:43:24;;;;;;;12.70;6.47;;;;;;;;;;10397053;28;20032;-58
2023/02/08 01:48:39;;;;;;;8.13;5.90;;;;;;;;;;10396550;28;20028;-58
2023/02/08 01:53:41;;;;;;;8.73;6.22;;;;;;;;;;10382110;28;20097;-61
2023/02/08 01:58:48;;;;;;;11.38;6.40;;;;;;;;;;10397293;28;20485;-58
2023/02/08 02:03:49;;;;;;;8.75;5.82;;;;;;;;;;10408362;28;20053;-58
2023/02/08 02:09:17;;;;;;;8.13;5.93;;;;;;;;;;10403394;28;20049;-59
2023/02/08 02:14:18;;;;;;;9.37;5.80;;;;;;;;;;10356542;28;20057;-58
2023/02/08 02:20:03;;;;;;;8.55;6.05;;;;;;;;;;10405321;28;20445;-58
2023/02/08 02:25:46;;;;;;;8.05;6.18;;;;;;;;;;10368312;28;20029;-60
2023/02/08 02:31:44;;;;;;;7.72;5.93;;;;;;;;;;10389982;28;20057;-59
2023/02/08 02:37:12;;;;;;;9.13;6.23;;;;;;;;;;10407265;28;20041;-58
2023/02/08 02:48:38;;;;;;;9.52;6.22;;;;;;;;;;10369827;28;20046;-59
2023/02/08 02:53:57;;;;;;;6.80;5.38;;;;;;;;;;10365020;28;20032;-58
2023/02/08 02:59:04;;;;;;;10.00;6.03;;;;;;;;;;10375714;28;20034;-58
2023/02/08 03:04:32;;;;;;;7.15;5.75;;;;;;;;;;10379331;28;20121;-58
2023/02/08 03:10:06;;;;;;;8.65;6.22;;;;;;;;;;10342922;28;20112;-58
2023/02/08 03:16:00;;;;;;;8.65;5.20;;;;;;;;;;10379125;28;20076;-58
2023/02/08 03:21:16;;;;;;;6.22;5.13;;;;;;;;;;10283062;28;20023;-59
2023/02/08 03:26:55;;;;;;;7.88;5.50;;;;;;;;;;10282826;28;20384;-61
2023/02/08 03:32:05;;;;;;;7.38;5.57;;;;;;;;;;10260930;28;20039;-61
2023/02/08 03:37:16;;;;;;;7.22;5.13;;;;;;;;;;10282195;28;20042;-60
2023/02/08 03:42:23;;;;;;;7.90;5.13;;;;;;;;;;10282453;28;20074;-60
2023/02/08 03:47:32;;;;;;;6.40;4.68;;;;;;;;;;10266222;28;20038;-60
2023/02/08 03:52:34;;;;;;;7.13;5.25;;;;;;;;;;10363978;28;20052;-61
2023/02/08 03:57:42;;;;;;;6.15;5.22;;;;;;;;;;10401776;28;20376;-60
2023/02/08 04:03:11;;;;;;;7.30;5.22;;;;;;;;;;10373681;28;20030;-60
2023/02/08 04:08:11;;;;;;;6.57;5.30;;;;;;;;;;10370279;28;20063;-60
2023/02/08 04:13:12;;;;;;;5.78;4.78;;;;;;;;;;10365926;28;20034;-60
2023/02/08 04:18:13;;;;;;;8.73;5.40;;;;;;;;;;10363477;28;20022;-60
2023/02/08 04:23:13;;;;;;;6.68;5.47;;;;;;;;;;10366493;28;20029;-59
2023/02/08 04:28:14;;;;;;;5.93;4.70;;;;;;;;;;10380260;28;20389;-60
2023/02/08 04:33:14;;;;;;;6.20;5.03;;;;;;;;;;10389271;28;20362;-59
2023/02/08 04:38:15;;;;;;;5.50;4.90;;;;;;;;;;10399907;28;20397;-59
2023/02/08 04:43:15;;;;;;;8.68;5.20;;;;;;;;;;10369787;28;20291;-59
2023/02/08 04:48:17;;;;;;;6.63;4.95;;;;;;;;;;10366887;28;20041;-60
2023/02/08 04:53:17;;;;;;;6.68;5.07;;;;;;;;;;10376583;28;20044;-58
2023/02/08 04:58:18;;;;;;;5.75;4.65;;;;;;;;;;10389240;28;20037;-58
2023/02/08 05:03:19;;;;;;;5.63;4.50;;;;;;;;;;10367631;28;20036;-59
2023/02/08 05:08:19;;;;;;;6.80;4.88;;;;;;;;;;10369473;28;20122;-59
2023/02/08 05:13:20;;;;;;;7.05;4.68;;;;;;;;;;10367155;28;20037;-58
2023/02/08 05:18:20;;;;;;;5.75;4.70;;;;;;;;;;10366095;28;20238;-58
2023/02/08 05:23:21;;;;;;;5.40;4.53;;;;;;;;;;10366258;28;20030;-58
2023/02/08 05:28:22;;;;;;;6.60;4.35;;;;;;;;;;10365780;28;20033;-58
2023/02/08 05:33:22;;;;;;;6.40;4.50;;;;;;;;;;10365779;28;20137;-59
2023/02/08 05:38:23;;;;;;;5.43;4.50;;;;;;;;;;10372981;28;20131;-58
2023/02/08 05:43:23;;;;;;;5.85;4.45;;;;;;;;;;10373686;28;20033;-58
2023/02/08 05:48:24;;;;;;;5.25;4.45;;;;;;;;;;10373923;28;20029;-58
2023/02/08 05:53:25;;;;;;;6.00;4.43;;;;;;;;;;10370020;28;20052;-60
2023/02/08 05:58:25;;;;;;;5.10;4.20;;;;;;;;;;10373257;28;20389;-60
2023/02/08 06:03:26;;;;;;;6.68;4.65;;;;;;;;;;10373133;28;20374;-60
2023/02/08 06:08:27;;;;;;;4.95;4.30;;;;;;;;;;10369437;28;20025;-61
2023/02/08 06:13:28;;;;;;;7.95;4.45;;;;;;;;;;10370366;28;20148;-61
2023/02/08 06:18:28;;;;;;;7.50;4.40;;;;;;;;;;10371525;28;20473;-61
2023/02/08 06:23:29;;;;;;;5.25;4.00;;;;;;;;;;10369034;28;20030;-58
2023/02/08 06:28:29;;;;;;;6.78;5.03;;;;;;;;;;10369724;28;20045;-61
2023/02/08 06:33:30;;;;;;;9.70;5.32;;;;;;;;;;10367383;28;20718;-60
2023/02/08 06:38:30;;;;;;;7.03;5.20;;;;;;;;;;10361246;28;20497;-59
2023/02/08 06:43:31;;;;;;;6.15;4.70;;;;;;;;;;10363140;28;20580;-59
2023/02/08 06:48:33;;;;;;;10.73;4.70;;;;;;;;;;10360338;28;20062;-58
2023/02/08 06:53:33;;;;;;;11.60;5.05;;;;;;;;;;10379748;28;20488;-62
2023/02/08 06:58:34;;;;;;;9.10;4.90;;;;;;;;;;10382269;28;20380;-58
2023/02/08 07:03:35;;;;;;;7.40;4.80;;;;;;;;;;10362774;28;20043;-58
2023/02/08 07:08:35;;;;;;;11.98;5.18;;;;;;;;;;10371511;28;20273;-58
2023/02/08 07:13:37;;;;;;;11.38;5.50;;;;;;;;;;10374022;28;20025;-58
2023/02/08 07:18:38;;;;;;;12.05;5.53;;;;;;;;;;10370232;28;20279;-58
2023/02/08 07:23:39;;;;;;;11.25;4.85;;;;;;;;;;10369224;28;20045;-57
2023/02/08 07:28:40;;;;;;;9.45;5.60;;;;;;;;;;10368619;28;20033;-58
2023/02/08 07:33:41;;;;;;;14.57;6.25;;;;;;;;;;10368936;28;20030;-57
2023/02/08 07:38:42;;;;;;;9.73;5.32;;;;;;;;;;10368664;28;20381;-58
2023/02/08 07:43:43;;;;;;;17.05;5.53;;;;;;;;;;10368698;28;20032;-58
2023/02/08 07:48:43;;;;;;;11.50;5.60;;;;;;;;;;10368414;28;20050;-58
2023/02/08 07:53:44;;;;;;;13.63;5.95;;;;;;;;;;10368666;28;20026;-58
2023/02/08 07:58:44;;;;;;;10.25;5.78;;;;;;;;;;10368284;28;20385;-58
2023/02/08 08:03:45;;;;;;;11.93;5.45;;;;;;;;;;10368025;28;20358;-58
2023/02/08 08:08:46;;;;;;;9.88;5.97;;;;;;;;;;10367973;28;20025;-57
2023/02/08 08:13:47;;;;;;;8.65;5.80;;;;;;;;;;10372317;28;20026;-58
2023/02/08 08:18:48;;;;;;;7.75;5.30;;;;;;;;;;10373258;28;20569;-58
2023/02/08 08:23:48;;;;;;;10.90;6.00;;;;;;;;;;10388373;28;20032;-58
2023/02/08 08:28:49;;;;;;;9.80;6.40;;;;;;;;;;10377503;28;20033;-58
2023/02/08 08:33:49;;;;;;;7.57;5.85;;;;;;;;;;10387162;28;20033;-58
2023/02/08 08:38:50;;;;;;;10.73;5.85;;;;;;;;;;10394039;28;20050;-58
2023/02/08 08:43:51;;;;;;;6.47;5.47;;;;;;;;;;10369136;28;20022;-58
2023/02/08 08:48:52;;;;;;;8.98;5.82;;;;;;;;;;10369656;28;20269;-58
2023/02/08 08:53:53;;;;;;;10.07;5.32;;;;;;;;;;10375618;28;20262;-57
2023/02/08 08:58:53;;;;;;;10.95;5.70;;;;;;;;;;10388856;28;20026;-58
2023/02/08 09:03:54;;;;;;;8.30;5.07;;;;;;;;;;10376121;28;20108;-58
2023/02/08 09:08:54;;;;;;;9.88;4.88;;;;;;;;;;10370032;28;20091;-58
2023/02/08 09:13:55;;;;;;;8.73;5.40;;;;;;;;;;10372051;28;20034;-58
2023/02/08 09:18:59;;;;;;;6.88;4.95;;;;;;;;;;10380346;28;20079;-58
2023/02/08 09:24:01;;;;;;;6.50;5.20;;;;;;;;;;10387711;28;20369;-58
2023/02/08 09:29:02;;;;;;;7.38;4.78;;;;;;;;;;10374442;28;20060;-57
2023/02/08 09:34:05;;;;;;;7.18;4.57;;;;;;;;;;10385451;28;20112;-58
2023/02/08 09:39:22;;;;;;;7.03;5.10;;;;;;;;;;10373232;28;20042;-57
2023/02/08 09:44:54;;;;;;;8.27;4.78;;;;;;;;;;10362652;28;20022;-58
2023/02/08 09:50:09;;;;;;;6.32;4.30;;;;;;;;;;10384242;28;20385;-58
2023/02/08 09:55:21;;;;;;;7.43;4.72;;;;;;;;;;10399477;28;20099;-58
2023/02/08 10:00:44;;;;;;;6.57;4.57;;;;;;;;;;10372575;28;20141;-58
2023/02/08 10:05:44;;;;;;;8.48;4.13;;;;;;;;;;10373465;28;20095;-58
2023/02/08 10:11:25;;;;;;;6.90;4.25;;;;;;;;;;10377457;28;20018;-58
2023/02/08 10:16:34;;;;;;;6.72;4.25;;;;;;;;;;10369959;28;20436;-58
2023/02/08 10:22:19;;;;;;;5.70;3.95;;;;;;;;;;10367857;28;20050;-58
2023/02/08 10:27:52;;;;;;;6.28;4.75;;;;;;;;;;10366088;28;20109;-58
2023/02/08 10:33:02;;;;;;;8.73;4.35;;;;;;;;;;10361984;28;20079;-58
2023/02/08 10:38:30;;;;;;;5.80;4.43;;;;;;;;;;10384077;22;20050;-64
2023/02/08 10:43:46;;;;;;;5.25;4.05;;;;;;;;;;10371394;28;20062;-64
2023/02/08 10:49:11;;;;;;;7.47;4.63;;;;;;;;;;10330333;28;20056;-64
2023/02/08 10:54:14;;;;;;;6.43;4.40;;;;;;;;;;10324052;28;20042;-64
2023/02/08 10:59:32;;;;;;;5.43;4.22;;;;;;;;;;10330042;28;20449;-64
2023/02/08 11:04:33;;;;;;;6.95;3.95;;;;;;;;;;10329864;28;20081;-64
2023/02/08 11:09:34;;;;;;;7.32;4.32;;;;;;;;;;10329655;28;20117;-64
2023/02/08 11:14:40;;;;;;;5.93;4.18;;;;;;;;;;10329527;28;20034;-64
2023/02/08 11:19:45;;;;;;;7.55;4.20;;;;;;;;;;10329441;28;20026;-64
2023/02/08 11:24:59;;;;;;;6.82;3.78;;;;;;;;;;10328938;28;20061;-64
2023/02/08 11:30:16;;;;;;;5.35;3.42;;;;;;;;;;10328714;28;20056;-64
2023/02/08 11:35:20;;;;;;;6.18;3.80;;;;;;;;;;10328074;28;20047;-65
2023/02/08 11:40:37;;;;;;;5.63;3.72;;;;;;;;;;10328240;28;20117;-64
2023/02/08 11:45:38;;;;;;;4.68;3.70;;;;;;;;;;10326893;28;20030;-64
2023/02/08 11:50:39;;;;;;;5.45;4.03;;;;;;;;;;10327543;28;20073;-64
2023/02/08 11:55:39;;;;;;;4.97;3.78;;;;;;;;;;10327697;28;20041;-64
2023/02/08 12:00:40;;;;;;;5.25;3.80;;;;;;;;;;10326734;28;20105;-64
2023/02/08 12:05:51;;;;;;;4.65;3.70;;;;;;;;;;10326241;28;20118;-64
2023/02/08 12:11:07;;;;;;;5.47;3.70;;;;;;;;;;10326061;28;20030;-64
2023/02/08 12:17:10;;;;;;;7.55;3.97;;;;;;;;;;10327087;28;20058;-64
2023/02/08 12:22:32;;;;;;;6.53;4.05;;;;;;;;;;10320951;28;20027;-64
2023/02/08 12:28:01;;;;;;;5.68;3.90;;;;;;;;;;10323896;28;20038;-64
2023/02/08 12:33:23;;;;;;;4.50;4.10;;;;;;;;;;10330786;28;20438;-64
2023/02/08 12:44:41;;;;;;;5.55;3.80;;;;;;;;;;10323777;28;20038;-64
2023/02/08 12:50:25;;;;;;;5.35;3.90;;;;;;;;;;10319204;28;20031;-64
2023/02/08 12:55:34;;;;;;;5.10;4.00;;;;;;;;;;10325584;28;20042;-64
2023/02/08 13:00:39;;;;;;;6.25;4.80;;;;;;;;;;10335404;28;20034;-64
2023/02/08 13:05:45;;;;;;;7.93;4.57;;;;;;;;;;10340358;28;20117;-64
2023/02/08 13:10:52;;;;;;;5.95;4.28;;;;;;;;;;10322829;28;20053;-64
2023/02/08 13:16:20;;;;;;;5.65;4.35;;;;;;;;;;10323052;28;20476;-64
2023/02/08 13:21:31;;;;;;;5.47;4.47;;;;;;;;;;10324050;28;20408;-64
2023/02/08 13:26:37;;;;;;;6.05;4.35;;;;;;;;;;10321625;28;20383;-64
2023/02/08 13:31:41;;;;;;;6.90;4.38;;;;;;;;;;10323918;28;20109;-64
2023/02/08 13:36:56;;;;;;;7.55;3.90;;;;;;;;;;10323625;28;20449;-64
2023/02/08 13:41:57;;;;;;;4.95;3.95;;;;;;;;;;10323908;28;20041;-64
2023/02/08 13:46:58;;;;;;;5.40;4.20;;;;;;;;;;10339720;28;20022;-64
2023/02/08 13:51:58;;;;;;;6.70;4.30;;;;;;;;;;10320919;28;20057;-64
2023/02/08 13:56:59;;;;;;;5.18;4.38;;;;;;;;;;10326452;28;20085;-64
2023/02/08 14:02:17;;;;;;;5.60;4.35;;;;;;;;;;10331078;28;20034;-64
2023/02/08 14:07:37;;;;;;;6.37;4.60;;;;;;;;;;10330363;28;20038;-64
2023/02/08 14:13:00;;;;;;;8.48;4.00;;;;;;;;;;10327742;28;20462;-64
2023/02/08 14:18:02;;;;;;;7.68;4.72;;;;;;;;;;10328311;28;20037;-64
2023/02/08 14:23:23;;;;;;;6.57;5.00;;;;;;;;;;10345012;28;20113;-64
2023/02/08 14:28:37;;;;;;;7.38;4.68;;;;;;;;;;10324856;28;20500;-64
2023/02/08 14:33:53;;;;;;;5.63;4.05;;;;;;;;;;10325712;28;20490;-64
2023/02/08 14:39:23;;;;;;;7.38;4.72;;;;;;;;;;10327355;28;20403;-64
2023/02/08 14:44:42;;;;;;;5.20;4.10;;;;;;;;;;10330822;28;20038;-64
2023/02/08 14:49:44;;;;;;;8.32;4.55;;;;;;;;;;10329571;28;20035;-63
2023/02/08 14:55:01;;;;;;;6.88;4.68;;;;;;;;;;10329770;28;20053;-64
2023/02/08 15:00:17;;;;;;;6.68;4.60;;;;;;;;;;10329985;28;20030;-64
2023/02/08 15:05:27;;;;;;;6.18;4.40;;;;;;;;;;10318199;28;20023;-63
2023/02/08 15:10:31;;;;;;;5.38;4.38;;;;;;;;;;10327523;28;20471;-64
2023/02/08 15:15:43;;;;;;;6.40;5.03;;;;;;;;;;10327785;28;20488;-64
2023/02/08 15:20:44;;;;;;;6.50;4.25;;;;;;;;;;10329336;28;20030;-63
2023/02/08 15:26:01;;;;;;;7.43;4.35;;;;;;;;;;10328922;28;20022;-64
2023/02/08 15:31:06;;;;;;;5.15;4.60;;;;;;;;;;10327502;28;20125;-63
2023/02/08 15:36:19;;;;;;;9.65;4.07;;;;;;;;;;10317786;28;20047;-63
2023/02/08 15:41:28;;;;;;;8.60;5.35;;;;;;;;;;10327410;28;20150;-64
2023/02/08 15:46:29;;;;;;;9.65;4.53;;;;;;;;;;10328362;28;20076;-64
2023/02/08 15:51:32;;;;;;;5.10;4.03;;;;;;;;;;10343349;28;20289;-64
2023/02/08 15:56:36;;;;;;;5.25;4.50;;;;;;;;;;10326556;28;20101;-64
2023/02/08 16:01:36;;;;;;;5.40;4.15;;;;;;;;;;10326473;28;20120;-63
2023/02/08 16:06:44;;;;;;;7.70;4.28;;;;;;;;;;10326226;28;20049;-63
2023/02/08 16:11:50;;;;;;;6.20;4.60;;;;;;;;;;10325527;28;20041;-64
2023/02/08 16:16:56;;;;;;;6.60;4.53;;;;;;;;;;10342045;28;20470;-63
2023/02/08 16:22:26;;;;;;;5.78;3.90;;;;;;;;;;10326836;28;20112;-63
2023/02/08 16:27:29;;;;;;;6.75;4.60;;;;;;;;;;10322213;28;20038;-63
2023/02/08 16:32:38;;;;;;;8.90;4.45;;;;;;;;;;10326870;28;20031;-64
2023/02/08 16:37:39;;;;;;;5.85;4.18;;;;;;;;;;10324857;28;20045;-64
2023/02/08 16:42:41;;;;;;;5.57;4.53;;;;;;;;;;10326573;28;20034;-63
2023/02/08 16:47:54;;;;;;;6.95;4.32;;;;;;;;;;10326554;28;20054;-63
2023/02/08 16:53:02;;;;;;;10.85;4.75;;;;;;;;;;10325073;28;20026;-63
2023/02/08 16:58:02;;;;;;;5.13;3.92;;;;;;;;;;10324437;28;20026;-63
2023/02/08 17:03:03;;;;;;;6.00;3.85;;;;;;;;;;10325377;28;20446;-63
2023/02/08 17:08:08;;;;;;;6.70;4.32;;;;;;;;;;10325544;28;20026;-63
2023/02/08 17:13:10;;;;;;;5.00;3.67;;;;;;;;;;10325208;28;20504;-63
2023/02/08 17:18:11;;;;;;;5.65;4.30;;;;;;;;;;10323217;28;20027;-63
2023/02/08 17:23:14;;;;;;;5.88;4.35;;;;;;;;;;10322203;28;20132;-65
2023/02/08 17:28:19;;;;;;;5.85;4.20;;;;;;;;;;10323768;28;20053;-65
2023/02/08 17:33:19;;;;;;;10.15;4.18;;;;;;;;;;10329179;28;20030;-65
2023/02/08 17:38:20;;;;;;;6.07;4.28;;;;;;;;;;10333120;28;20479;-65
2023/02/08 17:43:22;;;;;;;7.78;4.40;;;;;;;;;;10326984;28;20152;-65
2023/02/08 17:48:22;;;;;;;6.47;4.05;;;;;;;;;;10330520;28;20461;-65
2023/02/08 17:53:23;;;;;;;7.85;3.90;;;;;;;;;;10332032;28;20100;-65
2023/02/08 17:58:23;;;;;;;5.35;3.85;;;;;;;;;;10332551;28;20486;-65
2023/02/08 18:03:24;;;;;;;6.68;4.25;;;;;;;;;;10332591;28;20458;-65
2023/02/08 18:08:25;;;;;;;6.65;4.00;;;;;;;;;;10332405;28;20031;-67
2023/02/08 18:13:26;;;;;;;6.00;3.97;;;;;;;;;;10331950;28;20052;-67
2023/02/08 18:18:26;;;;;;;5.53;4.10;;;;;;;;;;10331061;28;20030;-63
2023/02/08 18:23:27;;;;;;;7.40;4.03;;;;;;;;;;10329082;28;20030;-66
2023/02/08 18:28:28;;;;;;;7.15;4.28;;;;;;;;;;10329575;28;20025;-66
2023/02/08 18:33:28;;;;;;;5.53;3.88;;;;;;;;;;10331651;28;20048;-66
2023/02/08 18:38:29;;;;;;;6.57;3.83;;;;;;;;;;10328959;28;20108;-66
2023/02/08 18:43:30;;;;;;;5.32;3.92;;;;;;;;;;10327820;28;20486;-66
2023/02/08 18:48:32;;;;;;;10.13;4.35;;;;;;;;;;10330924;28;20026;-67
2023/02/08 18:53:36;;;;;;;9.27;4.68;;;;;;;;;;10330335;28;20210;-66
2023/02/08 18:58:36;;;;;;;22.30;5.80;;;;;;;;;;10327002;28;20054;-65
2023/02/08 19:03:38;;;;;;;12.07;4.95;;;;;;;;;;10326423;28;20121;-66
2023/02/08 19:08:40;;;;;;;12.68;4.15;;;;;;;;;;10327533;28;20397;-65
2023/02/08 19:13:41;;;;;;;8.35;4.20;;;;;;;;;;10321378;28;20030;-66
2023/02/08 19:18:42;;;;;;;12.30;5.00;;;;;;;;;;10328473;28;20030;-66
2023/02/08 19:23:53;;;;;;;8.50;4.75;;;;;;;;;;10327651;28;20046;-66
2023/02/08 19:28:57;;;;;;;8.90;4.82;;;;;;;;;;10326322;28;20034;-65
2023/02/08 19:34:01;;;;;;;6.50;4.35;;;;;;;;;;10328403;28;20088;-65
2023/02/08 19:39:03;;;;;;;8.77;4.55;;;;;;;;;;10328738;28;20130;-65
2023/02/08 19:44:06;;;;;;;8.73;4.40;;;;;;;;;;10325853;28;20035;-65
2023/02/08 19:49:07;;;;;;;8.43;4.53;;;;;;;;;;10327500;28;20034;-63
2023/02/08 19:54:13;;;;;;;5.85;4.18;;;;;;;;;;10326845;28;20030;-66
2023/02/08 19:59:21;;;;;;;10.05;4.28;;;;;;;;;;10328416;28;20036;-66
2023/02/08 20:04:22;;;;;;;7.87;4.17;;;;;;;;;;10326340;28;20030;-64
2023/02/08 20:09:23;;;;;;;5.28;3.83;;;;;;;;;;10328093;28;20174;-68
2023/02/08 20:14:27;;;;;;;7.20;4.10;;;;;;;;;;10327346;28;20590;-65
2023/02/08 20:19:28;;;;;;;9.27;4.63;;;;;;;;;;10326724;28;20038;-64
2023/02/08 20:24:29;;;;;;;8.00;4.20;;;;;;;;;;10327079;28;20030;-65
2023/02/08 20:29:30;;;;;;;5.43;3.90;;;;;;;;;;10326740;28;20433;-68
2023/02/08 20:34:30;;;;;;;8.55;4.28;;;;;;;;;;10326891;28;20068;-68
2023/02/08 20:39:33;;;;;;;7.18;4.15;;;;;;;;;;10323642;28;20052;-67
2023/02/08 20:44:34;;;;;;;6.90;4.10;;;;;;;;;;10325028;28;20125;-67
2023/02/08 20:49:35;;;;;;;8.85;4.38;;;;;;;;;;10326600;28;20035;-67
2023/02/08 20:54:37;;;;;;;7.22;4.53;;;;;;;;;;10326948;28;20060;-67
2023/02/08 20:59:38;;;;;;;8.98;3.67;;;;;;;;;;10323338;28;20378;-62
2023/02/08 21:04:38;;;;;;;7.25;3.92;;;;;;;;;;10323099;28;20038;-66
2023/02/08 21:09:39;;;;;;;9.13;4.28;;;;;;;;;;10322891;28;20370;-65
2023/02/08 21:14:41;;;;;;;8.20;4.30;;;;;;;;;;10321529;28;20395;-62
2023/02/08 21:19:42;;;;;;;8.75;4.45;;;;;;;;;;10325735;28;20053;-65
2023/02/08 21:24:43;;;;;;;11.23;4.25;;;;;;;;;;10325616;28;20033;-62
2023/02/08 21:29:44;;;;;;;13.30;3.72;;;;;;;;;;10317850;28;20121;-62
2023/02/08 21:34:45;;;;;;;14.52;3.90;;;;;;;;;;10315437;28;20126;-62
2023/02/08 21:39:45;;;;;;;6.90;4.25;;;;;;;;;;10324074;28;20038;-64
2023/02/08 21:44:46;;;;;;;11.15;4.10;;;;;;;;;;10324927;28;20262;-61
2023/02/08 21:55:06;;;;;;;7.13;3.45;;;;;;;;;;10325678;28;20039;-61
2023/02/08 22:00:09;;;;;;;6.03;3.70;;;;;;;;;;10325196;28;20038;-61
2023/02/08 22:05:10;;;;;;;4.40;3.17;;;;;;;;;;10324351;28;20030;-61
2023/02/08 22:10:13;;;;;;;6.15;4.20;;;;;;;;;;10325069;28;20080;-65
2023/02/08 22:15:17;;;;;;;11.40;3.85;;;;;;;;;;10323711;28;20042;-63
2023/02/08 22:20:18;;;;;;;9.85;4.00;;;;;;;;;;10329684;28;20026;-65
2023/02/08 22:25:19;;;;;;;5.28;3.80;;;;;;;;;;10328244;28;20065;-65
2023/02/08 22:30:20;;;;;;;5.63;3.53;;;;;;;;;;10330401;28;20035;-66
2023/02/08 22:35:21;;;;;;;3.63;3.28;;;;;;;;;;10328765;28;20047;-66
2023/02/08 22:40:21;;;;;;;5.03;3.65;;;;;;;;;;10329870;28;20478;-67
2023/02/08 22:45:22;;;;;;;5.13;3.67;;;;;;;;;;10328600;28;20081;-66
2023/02/08 22:50:22;;;;;;;5.45;3.53;;;;;;;;;;10326100;28;20034;-66
2023/02/08 22:55:23;;;;;;;4.45;3.53;;;;;;;;;;10328945;28;20030;-69
2023/02/08 23:00:24;;;;;;;5.43;3.53;;;;;;;;;;10329947;28;20442;-66
2023/02/08 23:05:24;;;;;;;7.18;3.88;;;;;;;;;;10329661;28;20100;-66
2023/02/08 23:10:25;;;;;;;4.65;3.33;;;;;;;;;;10330399;28;20478;-66
2023/02/08 23:15:26;;;;;;;3.78;3.38;;;;;;;;;;10329236;28;20049;-66
2023/02/08 23:20:26;;;;;;;5.88;3.20;;;;;;;;;;10328819;28;20192;-66
2023/02/08 23:25:27;;;;;;;7.40;3.15;;;;;;;;;;10328805;28;20117;-66
2023/02/08 23:30:27;;;;;;;4.53;3.25;;;;;;;;;;10328637;28;20053;-66
2023/02/08 23:35:28;;;;;;;5.00;3.28;;;;;;;;;;10327717;28;20039;-61
2023/02/08 23:40:28;;;;;;;4.57;3.03;;;;;;;;;;10329100;28;20042;-63
2023/02/08 23:45:29;;;;;;;4.13;2.88;;;;;;;;;;10328549;28;20027;-63
2023/02/08 23:50:30;;;;;;;3.88;2.90;;;;;;;;;;10327805;28;20036;-63
2023/02/08 23:55:31;;;;;;;6.88;3.15;;;;;;;;;;10327527;28;20458;-62
